createdAt,value
2018-11-26T00:02:06.111Z,39.43
2018-11-26T00:04:36.899Z,35.00
2018-11-26T00:07:08.814Z,37.60
2018-11-26T00:09:41.861Z,37.00
2018-11-26T00:12:13.339Z,38.60
2018-11-26T00:14:44.962Z,41.10
2018-11-26T00:17:17.893Z,40.80
2018-11-26T00:19:49.398Z,38.50
2018-11-26T00:22:24.519Z,38.60
2018-11-26T00:24:54.759Z,38.03
2018-11-26T00:27:25.954Z,41.07
2018-11-26T00:29:55.663Z,42.13
2018-11-26T00:32:26.260Z,42.47
2018-11-26T00:34:56.107Z,38.23
2018-11-26T00:37:26.361Z,40.10
2018-11-26T00:39:57.769Z,39.80
2018-11-26T00:42:27.341Z,44.73
2018-11-26T00:44:57.130Z,38.87
2018-11-26T00:47:28.234Z,44.67
2018-11-26T00:49:59.670Z,48.77
2018-11-26T00:52:32.603Z,45.63
2018-11-26T00:55:04.523Z,50.10
2018-11-26T00:57:35.275Z,48.27
2018-11-26T01:00:11.624Z,54.10
2018-11-26T01:02:42.692Z,54.30
2018-11-26T01:05:23.951Z,52.37
2018-11-26T01:07:55.210Z,52.77
2018-11-26T01:10:25.098Z,61.80
2018-11-26T01:12:57.329Z,55.93
2018-11-26T01:15:27.695Z,59.60
2018-11-26T01:18:00.919Z,57.83
2018-11-26T01:20:33.795Z,58.80
2018-11-26T01:23:03.961Z,60.53
2018-11-26T01:25:34.645Z,61.37
2018-11-26T01:28:04.677Z,68.10
2018-11-26T01:30:35.304Z,64.50
2018-11-26T01:33:05.223Z,72.70
2018-11-26T01:35:36.135Z,70.43
2018-11-26T01:38:06.478Z,68.67
2018-11-26T01:40:41.727Z,76.60
2018-11-26T01:43:13.551Z,73.43
2018-11-26T01:45:43.363Z,68.87
2018-11-26T01:48:13.308Z,79.70
2018-11-26T01:50:45.121Z,78.33
2018-11-26T01:53:16.382Z,77.37
2018-11-26T01:55:49.519Z,81.40
2018-11-26T01:58:19.337Z,88.97
2018-11-26T02:00:52.434Z,82.70
2018-11-26T02:03:23.974Z,92.63
2018-11-26T02:05:55.450Z,97.27
2018-11-26T02:08:26.590Z,93.90
2018-11-26T02:10:56.379Z,96.73
2018-11-26T02:13:26.880Z,91.30
2018-11-26T02:15:56.901Z,93.90
2018-11-26T02:18:27.213Z,101.20
2018-11-26T02:20:57.454Z,94.27
2018-11-26T02:23:27.979Z,98.73
2018-11-26T02:25:58.551Z,96.93
2018-11-26T02:28:29.545Z,95.93
2018-11-26T02:31:05.292Z,99.20
2018-11-26T02:33:38.839Z,96.07
2018-11-26T02:36:09.514Z,100.70
2018-11-26T02:38:43.498Z,96.03
2018-11-26T02:41:13.503Z,103.30
2018-11-26T02:43:46.830Z,95.00
2018-11-26T02:46:19.317Z,110.93
2018-11-26T02:48:52.029Z,100.07
2018-11-26T02:51:22.913Z,110.63
2018-11-26T02:53:52.794Z,98.17
2018-11-26T02:56:23.735Z,108.67
2018-11-26T02:58:53.855Z,96.80
2018-11-26T03:01:24.741Z,96.17
2018-11-26T03:03:54.795Z,105.60
2018-11-26T03:06:24.717Z,100.07
2018-11-26T03:08:55.949Z,106.30
2018-11-26T03:11:26.247Z,103.33
2018-11-26T03:13:56.029Z,94.80
2018-11-26T03:16:26.731Z,99.53
2018-11-26T03:18:57.919Z,114.33
2018-11-26T03:21:30.638Z,97.27
2018-11-26T03:24:03.040Z,103.73
2018-11-26T03:26:34.160Z,102.03
2018-11-26T03:29:05.331Z,119.83
2018-11-26T03:31:35.136Z,107.13
2018-11-26T03:34:05.177Z,112.40
2018-11-26T03:36:35.848Z,108.77
2018-11-26T03:39:08.131Z,98.33
2018-11-26T03:41:39.787Z,92.40
2018-11-26T03:44:10.179Z,96.57
2018-11-26T03:46:39.953Z,103.40
2018-11-26T03:49:10.728Z,110.60
2018-11-26T03:51:41.103Z,100.50
2018-11-26T03:54:11.608Z,114.40
2018-11-26T03:56:42.241Z,115.63
2018-11-26T03:59:12.753Z,113.83
2018-11-26T04:01:43.313Z,114.80
2018-11-26T04:04:13.822Z,112.23
2018-11-26T04:06:44.726Z,123.80
2018-11-26T04:09:14.923Z,124.37
2018-11-26T04:11:50.807Z,122.60
2018-11-26T04:14:23.307Z,122.80
2018-11-26T04:16:55.199Z,116.93
2018-11-26T04:19:27.628Z,122.87
2018-11-26T04:21:57.156Z,126.90
2018-11-26T04:24:27.979Z,125.03
2018-11-26T04:26:58.598Z,121.07
2018-11-26T04:29:29.341Z,130.77
2018-11-26T04:32:00.966Z,118.43
2018-11-26T04:34:30.950Z,129.37
2018-11-26T04:37:02.759Z,120.63
2018-11-26T04:39:33.679Z,120.63
2018-11-26T04:42:04.055Z,114.40
2018-11-26T04:44:34.136Z,123.70
2018-11-26T04:47:04.548Z,113.07
2018-11-26T04:49:35.053Z,121.80
2018-11-26T04:52:06.049Z,108.77
2018-11-26T04:54:35.661Z,113.87
2018-11-26T04:57:06.146Z,109.27
2018-11-26T04:59:36.332Z,101.93
2018-11-26T05:02:06.606Z,117.67
2018-11-26T05:04:36.371Z,98.07
2018-11-26T05:07:07.530Z,104.20
2018-11-26T05:09:37.325Z,102.87
2018-11-26T05:12:07.599Z,96.43
2018-11-26T05:14:38.135Z,100.90
2018-11-26T05:17:08.617Z,103.30
2018-11-26T05:19:38.892Z,100.43
2018-11-26T05:22:09.245Z,96.47
2018-11-26T05:24:39.494Z,95.33
2018-11-26T05:27:10.393Z,96.00
2018-11-26T05:29:40.248Z,91.47
2018-11-26T05:32:10.710Z,101.50
2018-11-26T05:34:41.155Z,100.27
2018-11-26T05:37:12.395Z,99.67
2018-11-26T05:39:42.058Z,94.67
2018-11-26T05:42:13.746Z,102.23
2018-11-26T05:44:45.418Z,101.47
2018-11-26T05:47:17.382Z,93.40
2018-11-26T05:49:50.375Z,93.27
2018-11-26T05:52:21.473Z,86.33
2018-11-26T05:54:53.469Z,94.77
2018-11-26T05:57:23.645Z,94.80
2018-11-26T05:59:54.524Z,92.57
2018-11-26T06:02:24.466Z,94.37
2018-11-26T06:04:54.507Z,92.67
2018-11-26T06:07:25.773Z,93.77
2018-11-26T06:09:56.519Z,84.00
2018-11-26T06:12:26.637Z,103.27
2018-11-26T06:14:56.590Z,81.83
2018-11-26T06:17:27.579Z,83.20
2018-11-26T06:20:00.422Z,89.30
2018-11-26T06:22:32.797Z,86.33
2018-11-26T06:25:02.652Z,82.43
2018-11-26T06:27:34.639Z,88.40
2018-11-26T06:30:08.900Z,80.43
2018-11-26T06:32:38.573Z,94.90
2018-11-26T06:35:13.352Z,77.87
2018-11-26T06:37:47.851Z,82.93
2018-11-26T06:40:19.935Z,72.83
2018-11-26T06:42:51.785Z,78.63
2018-11-26T06:45:23.361Z,81.17
2018-11-26T06:47:53.028Z,71.87
2018-11-26T06:50:23.962Z,70.83
2018-11-26T06:52:53.834Z,81.87
2018-11-26T06:55:23.695Z,75.67
2018-11-26T06:57:54.416Z,73.13
2018-11-26T07:00:25.091Z,68.97
2018-11-26T07:02:55.580Z,67.03
2018-11-26T07:05:25.153Z,72.03
2018-11-26T07:07:55.646Z,70.47
2018-11-26T07:10:25.645Z,79.63
2018-11-26T07:12:56.094Z,74.00
2018-11-26T07:15:25.930Z,64.23
2018-11-26T07:17:56.981Z,68.00
2018-11-26T07:20:27.085Z,79.10
2018-11-26T07:22:57.197Z,68.33
2018-11-26T07:25:28.039Z,72.87
2018-11-26T07:27:57.985Z,73.60
2018-11-26T07:30:30.107Z,73.33
2018-11-26T07:33:03.399Z,74.00
2018-11-26T07:35:35.988Z,65.40
2018-11-26T07:38:08.849Z,67.20
2018-11-26T07:40:42.088Z,66.07
2018-11-26T07:43:14.400Z,61.80
2018-11-26T07:45:45.246Z,70.57
2018-11-26T07:48:15.941Z,78.33
2018-11-26T07:50:46.563Z,71.50
2018-11-26T07:53:16.846Z,69.83
2018-11-26T07:55:47.422Z,71.93
2018-11-26T07:58:17.354Z,67.30
2018-11-26T08:00:48.114Z,70.20
2018-11-26T08:03:19.531Z,65.90
2018-11-26T08:05:51.333Z,64.37
2018-11-26T08:08:22.977Z,68.27
2018-11-26T08:10:56.044Z,63.47
2018-11-26T08:13:28.292Z,75.97
2018-11-26T08:16:00.969Z,68.17
2018-11-26T08:18:34.062Z,66.13
2018-11-26T08:21:07.150Z,72.50
2018-11-26T08:23:39.756Z,70.00
2018-11-26T08:26:13.020Z,69.30
2018-11-26T08:28:45.097Z,79.67
2018-11-26T08:31:15.010Z,72.50
2018-11-26T08:33:47.555Z,74.33
2018-11-26T08:36:21.274Z,72.50
2018-11-26T08:38:57.544Z,77.17
2018-11-26T08:41:32.478Z,73.50
2018-11-26T08:44:10.135Z,70.23
2018-11-26T08:46:45.561Z,71.90
2018-11-26T08:49:22.956Z,66.40
2018-11-26T08:51:53.357Z,61.27
2018-11-26T08:54:24.190Z,70.20
2018-11-26T08:56:54.755Z,66.40
2018-11-26T08:59:27.690Z,65.70
2018-11-26T09:02:02.138Z,60.93
2018-11-26T09:04:37.425Z,60.47
2018-11-26T09:07:09.464Z,68.33
2018-11-26T09:09:46.599Z,54.90
2018-11-26T09:12:17.368Z,59.17
2018-11-26T09:14:48.268Z,49.90
2018-11-26T09:17:18.367Z,54.70
2018-11-26T09:19:51.210Z,52.30
2018-11-26T09:22:22.483Z,55.77
2018-11-26T09:24:53.872Z,57.37
2018-11-26T09:27:23.782Z,56.53
2018-11-26T09:29:53.420Z,53.47
2018-11-26T09:32:24.634Z,51.60
2018-11-26T09:34:54.535Z,50.83
2018-11-26T09:37:25.502Z,51.13
2018-11-26T09:39:55.817Z,52.10
2018-11-26T09:42:26.573Z,52.60
2018-11-26T09:44:56.492Z,51.20
2018-11-26T09:47:26.426Z,47.43
2018-11-26T09:49:57.850Z,49.70
2018-11-26T09:52:28.390Z,47.07
2018-11-26T09:54:58.719Z,45.57
2018-11-26T09:57:28.511Z,48.57
2018-11-26T10:00:00.236Z,43.70
2018-11-26T10:02:30.850Z,49.33
2018-11-26T10:05:01.015Z,43.67
2018-11-26T10:07:35.384Z,42.23
2018-11-26T10:10:09.575Z,39.67
2018-11-26T10:12:41.511Z,45.40
2018-11-26T10:15:20.083Z,43.40
2018-11-26T10:17:50.899Z,40.20
2018-11-26T10:20:21.099Z,42.87
2018-11-26T10:22:52.856Z,42.47
2018-11-26T10:25:23.982Z,43.10
2018-11-26T10:27:58.239Z,46.10
2018-11-26T10:30:29.854Z,41.37
2018-11-26T10:33:00.426Z,45.10
2018-11-26T10:35:31.938Z,43.43
2018-11-26T10:38:04.307Z,43.60
2018-11-26T10:40:37.310Z,44.00
2018-11-26T10:43:11.782Z,46.93
2018-11-26T10:45:42.536Z,36.83
2018-11-26T10:48:15.907Z,44.13
2018-11-26T10:50:47.815Z,40.30
2018-11-26T10:53:20.497Z,46.40
2018-11-26T10:55:52.904Z,38.97
2018-11-26T10:58:25.306Z,41.97
2018-11-26T11:00:59.167Z,40.07
2018-11-26T11:03:30.588Z,42.80
2018-11-26T11:06:01.235Z,43.00
2018-11-26T11:08:33.364Z,40.60
2018-11-26T11:11:04.091Z,38.50
2018-11-26T11:13:34.072Z,41.60
2018-11-26T11:16:09.033Z,41.53
2018-11-26T11:18:38.529Z,45.20
2018-11-26T11:21:08.956Z,41.53
2018-11-26T11:23:39.607Z,43.93
2018-11-26T11:26:09.966Z,46.20
2018-11-26T11:28:39.945Z,41.40
2018-11-26T11:31:09.969Z,44.67
2018-11-26T11:33:41.198Z,40.97
2018-11-26T11:36:11.173Z,46.20
2018-11-26T11:38:42.028Z,43.37
2018-11-26T11:41:13.836Z,37.97
2018-11-26T11:43:43.491Z,38.67
2018-11-26T11:46:13.967Z,35.83
2018-11-26T11:48:44.358Z,38.83
2018-11-26T11:51:14.131Z,40.90
2018-11-26T11:53:45.167Z,36.87
2018-11-26T11:56:14.636Z,37.00
2018-11-26T11:58:46.601Z,35.90
2018-11-26T12:01:18.131Z,34.50
2018-11-26T12:03:49.194Z,39.80
2018-11-26T12:06:18.755Z,39.50
2018-11-26T12:08:49.335Z,41.87
2018-11-26T12:11:20.650Z,34.97
2018-11-26T12:13:50.377Z,34.20
2018-11-26T12:16:26.359Z,36.80
2018-11-26T12:18:57.098Z,39.23
2018-11-26T12:21:28.356Z,38.33
2018-11-26T12:23:59.818Z,39.30
2018-11-26T12:26:31.083Z,40.27
2018-11-26T12:29:08.594Z,43.47
2018-11-26T12:31:39.635Z,37.63
2018-11-26T12:34:11.069Z,39.13
2018-11-26T12:36:41.055Z,44.07
2018-11-26T12:39:12.049Z,39.87
2018-11-26T12:41:42.414Z,40.10
2018-11-26T12:44:16.777Z,39.00
2018-11-26T12:46:48.785Z,39.37
2018-11-26T12:49:20.397Z,47.37
2018-11-26T12:51:55.295Z,40.77
2018-11-26T12:54:28.440Z,37.30
2018-11-26T12:57:05.577Z,34.13
2018-11-26T12:59:37.423Z,33.53
2018-11-26T13:02:07.743Z,37.97
2018-11-26T13:04:39.476Z,37.37
2018-11-26T13:07:10.916Z,33.70
2018-11-26T13:09:42.376Z,35.40
2018-11-26T13:12:13.385Z,37.13
2018-11-26T13:14:47.195Z,42.53
2018-11-26T13:17:17.418Z,35.63
2018-11-26T13:19:49.631Z,37.03
2018-11-26T13:22:20.543Z,39.57
2018-11-26T13:24:52.651Z,40.73
2018-11-26T13:27:24.187Z,38.90
2018-11-26T13:29:54.279Z,35.43
2018-11-26T13:32:24.181Z,41.17
2018-11-26T13:34:54.944Z,37.37
2018-11-26T13:37:25.177Z,36.13
2018-11-26T13:40:00.633Z,34.43
2018-11-26T13:42:32.646Z,36.70
2018-11-26T13:45:02.637Z,37.97
2018-11-26T13:47:35.049Z,36.60
2018-11-26T13:50:09.673Z,41.10
2018-11-26T13:52:42.472Z,42.37
2018-11-26T13:55:14.637Z,39.10
2018-11-26T13:57:46.245Z,40.40
2018-11-26T14:00:16.942Z,37.03
2018-11-26T14:02:46.697Z,41.23
2018-11-26T14:05:18.684Z,35.60
2018-11-26T14:07:48.724Z,40.73
2018-11-26T14:10:26.144Z,41.07
2018-11-26T14:13:09.781Z,40.90
2018-11-26T14:15:44.518Z,40.37
2018-11-26T14:18:14.993Z,39.80
2018-11-26T14:20:46.403Z,37.70
2018-11-26T14:23:19.046Z,38.87
2018-11-26T14:25:49.828Z,39.10
2018-11-26T14:28:23.757Z,37.63
2018-11-26T14:30:55.549Z,36.67
2018-11-26T14:33:25.113Z,41.20
2018-11-26T14:35:55.712Z,39.70
2018-11-26T14:38:26.645Z,34.43
2018-11-26T14:40:56.739Z,39.53
2018-11-26T14:43:27.531Z,39.73
2018-11-26T14:45:57.814Z,44.40
2018-11-26T14:48:28.316Z,45.20
2018-11-26T14:50:59.283Z,41.30
2018-11-26T14:53:29.765Z,39.37
2018-11-26T14:56:00.002Z,45.80
2018-11-26T14:58:30.578Z,40.00
2018-11-26T15:01:01.278Z,43.43
2018-11-26T15:03:31.182Z,40.50
2018-11-26T15:06:02.983Z,40.70
2018-11-26T15:08:34.572Z,47.93
2018-11-26T15:11:05.384Z,43.87
2018-11-26T15:13:38.069Z,43.77
2018-11-26T15:16:09.024Z,40.90
2018-11-26T15:18:39.171Z,48.87
2018-11-26T15:21:10.092Z,43.47
2018-11-26T15:23:41.383Z,43.47
2018-11-26T15:26:11.852Z,44.40
2018-11-26T15:28:43.240Z,42.87
2018-11-26T15:31:14.576Z,45.80
2018-11-26T15:33:49.998Z,51.20
2018-11-26T15:36:27.053Z,52.13
2018-11-26T15:38:58.497Z,50.87
2018-11-26T15:41:28.880Z,47.40
2018-11-26T15:43:59.394Z,55.00
2018-11-26T15:46:29.868Z,49.17
2018-11-26T15:49:00.342Z,50.87
2018-11-26T15:51:30.199Z,49.27
2018-11-26T15:54:01.446Z,42.13
2018-11-26T15:56:32.277Z,45.43
2018-11-26T15:59:02.318Z,50.10
2018-11-26T16:01:33.646Z,50.13
2018-11-26T16:04:04.305Z,51.40
2018-11-26T16:06:34.608Z,48.20
2018-11-26T16:09:07.280Z,48.03
2018-11-26T16:11:39.102Z,51.53
2018-11-26T16:14:12.094Z,49.97
2018-11-26T16:16:45.212Z,53.97
2018-11-26T16:19:21.614Z,46.97
2018-11-26T16:21:53.467Z,49.90
2018-11-26T16:24:28.183Z,45.80
2018-11-26T16:27:02.658Z,45.77
2018-11-26T16:29:41.950Z,54.70
2018-11-26T16:32:14.739Z,45.20
2018-11-26T16:34:44.741Z,55.07
2018-11-26T16:37:15.381Z,47.70
2018-11-26T16:39:49.831Z,41.63
2018-11-26T16:42:21.986Z,47.73
2018-11-26T16:44:53.548Z,41.57
2018-11-26T16:47:29.457Z,42.93
2018-11-26T16:50:02.521Z,47.00
2018-11-26T16:52:32.100Z,42.30
2018-11-26T16:55:02.531Z,44.20
2018-11-26T16:57:32.512Z,46.90
2018-11-26T17:00:03.837Z,43.50
2018-11-26T17:02:34.534Z,45.53
2018-11-26T17:05:06.123Z,47.53
2018-11-26T17:07:38.837Z,48.73
2018-11-26T17:10:10.459Z,43.43
2018-11-26T17:12:42.939Z,43.70
2018-11-26T17:15:15.992Z,45.80
2018-11-26T17:17:47.631Z,46.20
2018-11-26T17:20:18.757Z,39.93
2018-11-26T17:22:51.301Z,42.17
2018-11-26T17:25:23.437Z,41.90
2018-11-26T17:27:54.779Z,40.67
2018-11-26T17:30:26.068Z,45.43
2018-11-26T17:33:02.373Z,51.00
2018-11-26T17:35:36.897Z,47.63
2018-11-26T17:38:07.385Z,52.20
2018-11-26T17:40:40.617Z,43.43
2018-11-26T17:43:14.158Z,47.33
2018-11-26T17:45:44.854Z,44.90
2018-11-26T17:48:14.720Z,43.17
2018-11-26T17:50:46.863Z,47.20
2018-11-26T17:53:19.496Z,48.23
2018-11-26T17:55:53.950Z,46.90
2018-11-26T17:58:26.154Z,47.40
2018-11-26T18:01:06.404Z,47.40
2018-11-26T18:03:39.204Z,45.57
2018-11-26T18:06:11.361Z,47.10
2018-11-26T18:08:40.856Z,53.87
2018-11-26T18:11:11.723Z,52.47
2018-11-26T18:13:41.934Z,47.53
2018-11-26T18:16:12.765Z,48.73
2018-11-26T18:18:42.905Z,49.47
2018-11-26T18:21:13.936Z,53.97
2018-11-26T18:23:46.708Z,43.40
2018-11-26T18:26:18.023Z,49.67
2018-11-26T18:28:49.044Z,50.83
2018-11-26T18:31:19.408Z,51.07
2018-11-26T18:33:51.507Z,51.30
2018-11-26T18:36:21.855Z,48.23
2018-11-26T18:38:54.584Z,51.60
2018-11-26T18:41:27.722Z,48.40
2018-11-26T18:43:58.263Z,49.70
2018-11-26T18:46:29.771Z,47.83
2018-11-26T18:48:59.425Z,50.33
2018-11-26T18:51:29.792Z,52.53
2018-11-26T18:54:00.870Z,46.30
2018-11-26T18:56:31.239Z,43.90
2018-11-26T18:59:02.150Z,47.17
2018-11-26T19:01:33.860Z,44.73
2018-11-26T19:04:07.091Z,43.40
2018-11-26T19:06:37.131Z,44.33
2018-11-26T19:09:08.941Z,49.43
2018-11-26T19:11:46.908Z,47.20
2018-11-26T19:14:21.172Z,46.20
2018-11-26T19:16:53.547Z,47.03
2018-11-26T19:19:26.615Z,45.80
2018-11-26T19:21:56.302Z,46.73
2018-11-26T19:24:27.258Z,41.20
2018-11-26T19:26:59.660Z,46.50
2018-11-26T19:29:35.773Z,44.47
2018-11-26T19:32:08.892Z,46.87
2018-11-26T19:34:40.609Z,51.10
2018-11-26T19:37:12.795Z,49.63
2018-11-26T19:39:46.091Z,47.30
2018-11-26T19:42:15.952Z,52.67
2018-11-26T19:44:47.456Z,50.57
2018-11-26T19:47:21.223Z,53.53
2018-11-26T19:49:53.539Z,48.20
2018-11-26T19:52:24.317Z,50.83
2018-11-26T19:54:54.257Z,55.90
2018-11-26T19:57:24.482Z,55.67
2018-11-26T19:59:55.500Z,62.53
2018-11-26T20:02:25.149Z,56.40
2018-11-26T20:05:01.274Z,50.90
2018-11-26T20:07:33.655Z,57.30
2018-11-26T20:10:04.137Z,53.63
2018-11-26T20:12:34.771Z,49.47
2018-11-26T20:15:06.902Z,58.87
2018-11-26T20:17:38.599Z,57.93
2018-11-26T20:20:10.013Z,57.67
2018-11-26T20:22:41.211Z,53.23
2018-11-26T20:25:15.226Z,56.80
2018-11-26T20:27:45.030Z,61.43
2018-11-26T20:30:15.778Z,55.83
2018-11-26T20:32:47.060Z,54.97
2018-11-26T20:35:18.410Z,62.40
2018-11-26T20:37:50.627Z,57.00
2018-11-26T20:40:22.306Z,59.07
2018-11-26T20:42:56.235Z,57.60
2018-11-26T20:45:28.701Z,62.47
2018-11-26T20:47:58.869Z,55.80
2018-11-26T20:50:29.675Z,53.73
2018-11-26T20:52:59.165Z,56.60
2018-11-26T20:55:32.929Z,56.03
2018-11-26T20:58:03.419Z,59.43
2018-11-26T21:00:35.082Z,55.00
2018-11-26T21:03:09.053Z,52.63
2018-11-26T21:05:42.125Z,56.83
2018-11-26T21:08:13.866Z,53.07
2018-11-26T21:10:44.995Z,58.70
2018-11-26T21:13:17.043Z,59.77
2018-11-26T21:15:45.830Z,51.50
2018-11-26T21:18:15.438Z,53.40
2018-11-26T21:20:50.062Z,50.53
2018-11-26T21:23:24.000Z,54.63
2018-11-26T21:25:54.119Z,49.07
2018-11-26T21:28:25.200Z,48.37
2018-11-26T21:30:56.379Z,50.87
2018-11-26T21:33:29.528Z,48.00
2018-11-26T21:36:07.453Z,49.37
2018-11-26T21:38:42.627Z,57.43
2018-11-26T21:41:14.983Z,48.10
2018-11-26T21:43:47.901Z,50.77
2018-11-26T21:46:18.831Z,50.97
2018-11-26T21:48:50.897Z,44.33
2018-11-26T21:51:23.108Z,44.43
2018-11-26T21:53:52.799Z,43.43
2018-11-26T21:56:26.239Z,47.87
2018-11-26T21:58:57.967Z,44.80
2018-11-26T22:01:28.361Z,48.97
2018-11-26T22:04:00.840Z,43.77
2018-11-26T22:06:32.209Z,40.13
2018-11-26T22:09:02.417Z,35.70
2018-11-26T22:11:34.392Z,32.47
2018-11-26T22:14:04.381Z,34.53
2018-11-26T22:16:34.408Z,38.23
2018-11-26T22:19:05.749Z,33.13
2018-11-26T22:21:35.476Z,30.87
2018-11-26T22:24:06.688Z,31.87
2018-11-26T22:26:36.890Z,31.50
2018-11-26T22:29:06.937Z,28.73
2018-11-26T22:31:40.794Z,30.40
2018-11-26T22:34:14.788Z,29.23
2018-11-26T22:36:47.869Z,25.77
2018-11-26T22:39:19.302Z,27.67
2018-11-26T22:41:50.269Z,29.57
2018-11-26T22:44:22.443Z,30.43
2018-11-26T22:46:55.233Z,26.87
2018-11-26T22:49:25.227Z,29.43
2018-11-26T22:51:57.354Z,29.90
2018-11-26T22:54:28.192Z,29.50
2018-11-26T22:57:00.932Z,29.03
2018-11-26T22:59:31.754Z,31.10
2018-11-26T23:02:06.190Z,26.10
2018-11-26T23:04:39.512Z,29.83
2018-11-26T23:07:09.371Z,30.20
2018-11-26T23:09:41.150Z,30.03
2018-11-26T23:12:15.140Z,29.07
2018-11-26T23:14:48.754Z,25.67
2018-11-26T23:17:19.527Z,28.43
2018-11-26T23:19:51.836Z,29.10
2018-11-26T23:22:24.065Z,32.27
2018-11-26T23:24:57.740Z,31.43
2018-11-26T23:27:34.017Z,28.40
2018-11-26T23:30:09.868Z,34.97
2018-11-26T23:32:42.288Z,29.40
2018-11-26T23:35:12.345Z,36.20
2018-11-26T23:37:47.655Z,33.53
2018-11-26T23:40:19.699Z,28.27
2018-11-26T23:42:50.434Z,31.80
2018-11-26T23:45:25.321Z,35.20
2018-11-26T23:47:55.644Z,31.03
2018-11-26T23:50:27.184Z,31.40
2018-11-26T23:53:00.065Z,33.40
2018-11-26T23:55:32.220Z,35.97
2018-11-26T23:58:05.579Z,31.10
